Time;durP1;ratioP1;P1;durP2;ratioP2;P2;SDS_P1;SDS_P2;PMS_P1;PMS_P2;Temp;Humidity;BMP_temperature;BMP_pressure;BME280_temperature;BME280_humidity;BME280_pressure;Samples;Min_cycle;Max_cycle;Signal;HPM_P1;HPM_P2
2022/06/10 00:01:57;;;;;;;3.45;2.08;;;;;;;14.05;66.02;97808.81;4962208;28;20642;-77
2022/06/10 00:04:22;;;;;;;3.33;2.20;;;;;;;14.03;65.76;97803.06;4965031;28;20328;-77
2022/06/10 00:06:51;;;;;;;3.40;2.20;;;;;;;13.90;66.05;97803.47;4964618;28;20313;-77
2022/06/10 00:09:25;;;;;;;3.05;2.00;;;;;;;13.86;65.96;97813.66;4949469;28;20215;-78
2022/06/10 00:11:51;;;;;;;3.22;1.63;;;;;;;14.08;65.35;97811.97;4955065;28;20651;-77
2022/06/10 00:14:16;;;;;;;3.45;2.00;;;;;;;14.16;65.27;97801.03;4939789;28;20247;-77
2022/06/10 00:16:41;;;;;;;2.75;1.77;;;;;;;14.14;65.12;97813.59;4947236;28;20592;-77
2022/06/10 00:19:07;;;;;;;4.00;2.00;;;;;;;14.07;64.91;97807.75;4948863;28;20267;-77
2022/06/10 00:21:32;;;;;;;3.08;2.10;;;;;;;14.03;65.03;97810.91;4948347;28;20651;-77
2022/06/10 00:23:58;;;;;;;3.70;1.85;;;;;;;13.98;65.04;97810.88;4965029;28;20187;-77
2022/06/10 00:26:23;;;;;;;2.45;1.75;;;;;;;13.92;65.04;97819.72;4969318;28;20470;-77
2022/06/10 00:28:49;;;;;;;2.05;1.88;;;;;;;13.83;64.94;97819.38;4952389;28;20167;-77
2022/06/10 00:31:15;;;;;;;3.05;2.10;;;;;;;13.75;65.18;97811.97;4965590;28;20195;-77
2022/06/10 00:33:41;;;;;;;5.68;2.15;;;;;;;13.71;65.72;97816.16;4965874;28;20215;-77
2022/06/10 00:36:07;;;;;;;2.70;2.20;;;;;;;13.71;65.16;97815.34;4970533;28;20305;-77
2022/06/10 00:38:33;;;;;;;2.75;1.92;;;;;;;13.70;65.05;97814.56;4954396;28;20256;-77
2022/06/10 00:41:00;;;;;;;3.38;1.77;;;;;;;13.72;65.22;97822.16;4948769;28;20203;-77
2022/06/10 00:43:29;;;;;;;2.40;1.58;;;;;;;13.64;64.54;97818.97;4964823;28;20682;-77
2022/06/10 00:45:59;;;;;;;4.25;1.63;;;;;;;13.44;65.00;97814.31;4948359;28;20248;-77
2022/06/10 00:48:47;;;;;;;4.30;1.63;;;;;;;13.37;65.25;97826.03;4965350;28;20302;-77
2022/06/10 00:51:33;;;;;;;2.38;1.95;;;;;;;13.32;65.77;97820.75;4966276;28;20243;-77
2022/06/10 00:54:33;;;;;;;2.60;1.73;;;;;;;13.25;66.00;97813.06;4943913;28;20383;-77
2022/06/10 00:57:02;;;;;;;2.88;1.90;;;;;;;13.45;65.52;97815.09;4946576;28;20584;-77
2022/06/10 00:59:48;;;;;;;4.03;1.77;;;;;;;13.22;65.58;97808.31;4946629;28;20180;-77
2022/06/10 01:02:23;;;;;;;4.10;1.98;;;;;;;13.25;65.67;97813.84;4951960;28;20350;-77
2022/06/10 01:05:02;;;;;;;2.20;2.00;;;;;;;13.34;65.75;97810.81;4963618;28;20204;-77
2022/06/10 01:07:33;;;;;;;3.25;1.98;;;;;;;13.18;66.19;97802.78;4939337;28;20186;-77
2022/06/10 01:10:00;;;;;;;2.53;2.22;;;;;;;13.25;65.90;97808.59;4969598;28;20581;-77
2022/06/10 01:13:07;;;;;;;4.25;2.22;;;;;;;13.08;66.39;97807.91;4967925;28;20280;-77
2022/06/10 01:15:37;;;;;;;3.53;2.10;;;;;;;13.15;65.89;97803.25;4962306;28;20641;-77
2022/06/10 01:18:05;;;;;;;3.30;1.85;;;;;;;13.26;66.29;97810.19;4952019;28;20195;-77
2022/06/10 01:20:44;;;;;;;2.90;2.17;;;;;;;13.09;66.12;97812.88;4969071;28;20575;-77
2022/06/10 01:23:37;;;;;;;3.45;2.42;;;;;;;13.04;66.69;97812.81;4967363;28;20678;-77
2022/06/10 01:26:28;;;;;;;3.17;1.95;;;;;;;13.03;66.20;97816.47;4963579;28;20163;-77
2022/06/10 01:29:02;;;;;;;3.83;2.00;;;;;;;13.14;65.83;97800.88;4969424;28;20156;-77
2022/06/10 01:31:36;;;;;;;3.88;2.17;;;;;;;13.03;65.57;97806.00;4969524;28;20245;-77
2022/06/10 01:34:13;;;;;;;3.38;1.90;;;;;;;13.01;65.88;97802.84;4970001;28;20168;-77
2022/06/10 01:36:47;;;;;;;5.68;1.73;;;;;;;12.98;65.88;97805.16;4969621;28;20281;-76
2022/06/10 01:39:31;;;;;;;4.47;2.23;;;;;;;13.08;66.02;97807.91;4969981;28;20281;-77
2022/06/10 01:42:05;;;;;;;3.28;2.22;;;;;;;12.92;66.37;97810.34;4966529;28;20647;-77
2022/06/10 01:44:33;;;;;;;3.00;2.63;;;;;;;13.01;66.44;97809.91;4967889;28;20371;-77
2022/06/10 01:47:09;;;;;;;3.47;2.08;;;;;;;12.98;65.86;97813.00;4972661;28;20616;-77
2022/06/10 01:49:41;;;;;;;3.10;1.63;;;;;;;13.02;65.97;97820.13;4975659;28;20219;-77
2022/06/10 01:52:32;;;;;;;3.92;2.10;;;;;;;12.91;66.45;97813.97;4961210;28;20210;-77
2022/06/10 01:55:25;;;;;;;3.05;1.80;;;;;;;13.03;65.58;97818.28;4963498;28;20640;-77
2022/06/10 01:58:08;;;;;;;3.08;1.73;;;;;;;12.92;65.03;97812.94;4967494;28;20258;-77
2022/06/10 02:00:36;;;;;;;2.45;1.90;;;;;;;12.94;65.07;97817.94;4949807;28;20198;-77
2022/06/10 02:03:16;;;;;;;3.47;2.00;;;;;;;12.80;65.39;97817.50;4950750;28;20670;-77
2022/06/10 02:05:52;;;;;;;3.47;2.28;;;;;;;12.78;65.84;97818.78;4974424;28;20648;-77
2022/06/10 02:08:27;;;;;;;4.22;1.80;;;;;;;12.81;65.53;97813.84;4970878;28;20211;-77
2022/06/10 02:10:52;;;;;;;;;;;;;;;12.62;66.21;97820.41;4967861;28;20187;-77
2022/06/10 02:13:24;;;;;;;3.30;2.20;;;;;;;12.76;66.15;97816.41;4968880;28;20094;-77
2022/06/10 02:15:52;;;;;;;5.03;2.45;;;;;;;12.80;66.16;97820.13;4965058;28;20662;-77
2022/06/10 02:18:22;;;;;;;2.80;2.22;;;;;;;12.77;66.49;97819.81;4950381;28;20609;-77
2022/06/10 02:20:53;;;;;;;2.75;2.05;;;;;;;12.72;65.91;97815.31;4966423;28;20202;-77
2022/06/10 02:23:23;;;;;;;2.10;1.90;;;;;;;12.70;66.08;97820.78;4933955;28;20317;-77
2022/06/10 02:25:51;;;;;;;2.60;1.80;;;;;;;12.71;65.86;97826.78;4928663;28;20240;-77
2022/06/10 02:28:28;;;;;;;4.80;1.90;;;;;;;12.69;65.50;97823.63;4951755;28;20564;-77
2022/06/10 02:31:03;;;;;;;2.05;1.70;;;;;;;12.72;65.30;97830.97;4966813;28;20706;-77
2022/06/10 02:33:29;;;;;;;3.58;2.10;;;;;;;12.76;65.01;97826.84;4950532;28;20645;-77
2022/06/10 02:36:17;;;;;;;2.40;1.52;;;;;;;12.52;65.33;97824.44;4952899;28;20109;-77
2022/06/10 02:39:23;;;;;;;2.47;1.77;;;;;;;12.50;65.82;97829.13;4966325;28;20687;-77
2022/06/10 02:42:01;;;;;;;3.53;1.88;;;;;;;12.56;64.92;97837.84;4966019;28;20305;-77
2022/06/10 02:45:00;;;;;;;3.10;1.95;;;;;;;12.46;65.82;97838.47;4971360;28;20175;-77
2022/06/10 02:47:31;;;;;;;5.28;2.78;;;;;;;12.51;65.82;97835.94;4946173;28;20608;-77
2022/06/10 02:49:56;;;;;;;3.03;2.35;;;;;;;12.64;65.98;97839.22;4977388;28;20336;-77
2022/06/10 02:52:27;;;;;;;4.13;2.40;;;;;;;12.53;65.86;97844.31;4960273;28;20704;-77
2022/06/10 02:54:53;;;;;;;3.65;2.58;;;;;;;12.62;66.51;97841.31;4965741;28;20191;-77
2022/06/10 03:01:11;;;;;;;5.13;2.67;;;;;;;12.49;66.56;97851.06;4949887;28;20656;-77
2022/06/10 03:03:21;;;;;;;3.97;2.40;;;;;;;12.61;66.37;97855.38;4966615;28;20314;-77
2022/06/10 03:06:07;;;;;;;3.50;2.47;;;;;;;12.44;66.53;97844.94;4965911;28;20138;-77
2022/06/10 03:08:38;;;;;;;3.17;2.00;;;;;;;12.52;65.70;97852.38;4964882;28;20297;-77
2022/06/10 03:12:09;;;;;;;4.50;2.20;;;;;;;12.44;66.32;97858.81;4965800;28;20739;-77
2022/06/10 03:14:49;;;;;;;3.28;2.05;;;;;;;12.42;65.78;97852.25;4891470;28;20283;-77
2022/06/10 03:17:43;;;;;;;2.90;1.95;;;;;;;12.36;66.26;97851.38;4974374;28;20282;-77
2022/06/10 03:20:30;;;;;;;3.03;2.30;;;;;;;12.36;66.44;97857.38;4962745;28;20152;-77
2022/06/10 03:23:13;;;;;;;3.58;2.70;;;;;;;12.35;67.01;97868.06;4964448;28;20734;-77
2022/06/10 03:25:47;;;;;;;8.10;2.63;;;;;;;12.33;67.49;97854.47;4955562;28;20581;-77
2022/06/10 03:28:24;;;;;;;6.15;2.92;;;;;;;12.35;66.66;97868.88;4959027;28;20289;-77
2022/06/10 03:30:56;;;;;;;4.90;2.80;;;;;;;12.48;66.28;97861.75;4933180;28;20691;-77
2022/06/10 03:33:32;;;;;;;3.22;2.25;;;;;;;12.62;66.21;97867.44;4965243;28;20230;-77
2022/06/10 03:36:02;;;;;;;3.33;2.10;;;;;;;12.51;66.00;97864.66;4965557;28;20242;-77
2022/06/10 03:38:30;;;;;;;3.10;1.90;;;;;;;12.58;65.71;97866.31;4949039;28;20285;-77
2022/06/10 03:41:02;;;;;;;3.63;2.25;;;;;;;12.65;65.93;97872.19;4945791;28;20277;-77
2022/06/10 03:43:32;;;;;;;2.67;2.28;;;;;;;12.56;65.52;97879.63;4964817;28;20359;-77
2022/06/10 03:46:04;;;;;;;3.28;2.33;;;;;;;12.55;65.36;97878.03;4949054;28;20285;-77
2022/06/10 03:48:34;;;;;;;3.30;2.25;;;;;;;12.58;65.49;97877.56;4964944;28;20298;-77
2022/06/10 03:51:00;;;;;;;5.05;2.30;;;;;;;12.74;65.38;97881.19;4965086;28;20199;-77
2022/06/10 03:53:25;;;;;;;4.53;2.50;;;;;;;12.78;65.10;97882.25;4964627;28;20203;-77
2022/06/10 03:55:51;;;;;;;3.03;2.47;;;;;;;12.73;64.72;97883.00;4965232;28;20228;-78
2022/06/10 03:58:17;;;;;;;4.50;2.00;;;;;;;12.67;65.17;97885.78;4948947;28;20196;-77
2022/06/10 04:00:43;;;;;;;2.50;2.30;;;;;;;12.64;65.37;97886.25;4948476;28;20273;-77
2022/06/10 04:03:09;;;;;;;2.05;1.63;;;;;;;12.59;65.05;97880.97;4965033;28;20641;-77
2022/06/10 04:05:34;;;;;;;3.17;1.90;;;;;;;12.59;65.59;97878.34;4949031;28;20210;-77
2022/06/10 04:08:00;;;;;;;2.13;1.77;;;;;;;12.70;64.89;97886.09;4965203;28;20719;-77
2022/06/10 04:10:28;;;;;;;8.05;2.00;;;;;;;12.71;65.10;97894.72;4967486;28;20707;-77
2022/06/10 04:12:53;;;;;;;6.53;3.05;;;;;;;12.74;65.04;97895.03;4938875;28;20202;-77
2022/06/10 04:15:19;;;;;;;4.18;2.58;;;;;;;12.78;65.28;97905.78;4969698;28;20190;-77
2022/06/10 04:17:50;;;;;;;2.90;2.42;;;;;;;12.75;65.74;97914.13;4963458;28;20649;-77
2022/06/10 04:20:31;;;;;;;2.80;2.08;;;;;;;12.67;65.69;97910.09;4948508;28;20176;-77
2022/06/10 04:22:56;;;;;;;4.47;2.40;;;;;;;12.83;65.40;97908.47;4965347;28;20131;-77
2022/06/10 04:25:22;;;;;;;3.25;1.88;;;;;;;12.85;65.28;97918.69;4964831;28;20222;-77
2022/06/10 04:27:49;;;;;;;2.20;1.77;;;;;;;12.86;64.93;97915.84;4965527;28;20289;-77
2022/06/10 04:30:23;;;;;;;3.30;1.88;;;;;;;12.70;65.24;97907.00;4948687;28;20253;-77
2022/06/10 04:32:48;;;;;;;1.75;1.65;;;;;;;12.86;65.23;97910.59;4947917;28;20297;-77
2022/06/10 04:35:14;;;;;;;6.97;2.78;;;;;;;12.92;65.37;97914.88;4965040;28;20180;-77
2022/06/10 04:37:39;;;;;;;2.25;2.05;;;;;;;12.98;65.10;97917.56;4948716;28;20706;-77
2022/06/10 04:40:05;;;;;;;3.17;2.10;;;;;;;13.00;65.36;97916.28;4964265;28;20688;-77
2022/06/10 04:42:31;;;;;;;4.55;2.22;;;;;;;13.10;64.95;97923.47;4963477;28;20203;-77
2022/06/10 04:44:57;;;;;;;3.03;2.08;;;;;;;13.15;65.16;97918.31;4968767;28;20322;-77
2022/06/10 04:47:23;;;;;;;3.70;2.25;;;;;;;13.19;65.59;97923.84;4952090;28;20193;-77
2022/06/10 04:49:48;;;;;;;2.70;2.30;;;;;;;13.26;65.27;97924.44;4968382;28;20199;-77
2022/06/10 04:52:13;;;;;;;5.10;1.85;;;;;;;13.34;65.33;97926.69;4968366;28;20291;-77
2022/06/10 04:54:39;;;;;;;5.20;2.38;;;;;;;13.45;65.61;97935.44;4952696;28;20632;-77
2022/06/10 04:57:05;;;;;;;3.53;2.20;;;;;;;13.51;65.72;97929.22;4951917;28;20246;-78
2022/06/10 04:59:30;;;;;;;5.38;2.45;;;;;;;13.62;66.06;97923.09;4970099;28;20182;-77
2022/06/10 05:01:55;;;;;;;4.32;2.53;;;;;;;13.75;66.20;97923.75;4967500;28;20235;-77
2022/06/10 05:04:22;;;;;;;3.58;2.60;;;;;;;13.92;66.02;97926.28;4950550;28;20199;-77
2022/06/10 05:06:48;;;;;;;3.20;2.45;;;;;;;14.04;66.26;97925.06;4966800;28;20697;-77
2022/06/10 05:09:13;;;;;;;3.28;2.60;;;;;;;14.16;66.02;97934.59;4967820;28;20172;-78
2022/06/10 05:11:45;;;;;;;5.10;3.10;;;;;;;14.16;65.82;97927.53;4966758;28;20669;-77
2022/06/10 05:14:10;;;;;;;4.93;2.65;;;;;;;14.36;65.34;97937.41;4964276;28;20196;-77
2022/06/10 05:16:36;;;;;;;4.10;3.03;;;;;;;14.42;65.23;97928.53;4965866;28;20348;-77
2022/06/10 05:19:03;;;;;;;3.58;2.42;;;;;;;14.45;65.40;97926.47;4969652;28;20679;-77
2022/06/10 05:21:29;;;;;;;3.00;2.17;;;;;;;14.52;65.44;97935.69;4968316;28;20280;-77
2022/06/10 05:23:54;;;;;;;3.00;2.70;;;;;;;14.57;65.37;97934.94;4966754;28;20256;-77
2022/06/10 05:26:20;;;;;;;4.20;2.63;;;;;;;14.63;64.50;97939.19;4951243;28;20245;-77
2022/06/10 05:28:46;;;;;;;7.18;3.95;;;;;;;14.71;64.90;97935.31;4935038;28;20160;-77
2022/06/10 05:31:11;;;;;;;3.63;3.13;;;;;;;14.76;64.99;97943.22;4968712;28;20344;-77
2022/06/10 05:36:21;;;;;;;3.70;2.70;;;;;;;14.89;65.25;97944.59;4967252;28;20183;-77
2022/06/10 05:38:46;;;;;;;5.55;2.67;;;;;;;14.97;65.38;97955.41;4948931;28;20276;-76
2022/06/10 05:43:56;;;;;;;4.68;3.10;;;;;;;15.10;65.44;97946.31;4968631;28;20240;-77
2022/06/10 05:46:21;;;;;;;3.38;2.40;;;;;;;15.21;65.55;97944.53;4949621;28;20591;-77
2022/06/10 05:48:47;;;;;;;4.13;2.65;;;;;;;15.31;65.47;97941.94;4950668;28;20582;-77
2022/06/10 05:51:12;;;;;;;5.57;3.20;;;;;;;15.53;65.28;97949.66;4966958;28;20313;-77
2022/06/10 05:53:37;;;;;;;4.95;3.47;;;;;;;15.65;66.17;97946.81;4966028;28;20176;-77
2022/06/10 05:56:03;;;;;;;4.15;3.35;;;;;;;15.80;66.09;97937.41;4949170;28;20282;-77
2022/06/10 05:58:30;;;;;;;6.78;3.03;;;;;;;15.96;66.28;97941.66;4966939;28;20159;-77
2022/06/10 06:00:55;;;;;;;4.50;3.40;;;;;;;16.10;66.65;97934.06;4950581;28;20252;-77
2022/06/10 06:03:21;;;;;;;6.07;3.35;;;;;;;16.31;66.84;97940.09;4950408;28;20285;-77
2022/06/10 06:05:46;;;;;;;6.63;3.53;;;;;;;16.48;66.25;97950.38;4949638;28;20251;-77
2022/06/10 06:08:12;;;;;;;4.40;3.33;;;;;;;16.66;66.09;97952.47;4967486;28;20203;-77
2022/06/10 06:10:37;;;;;;;3.72;3.00;;;;;;;16.91;65.60;97956.13;4950491;28;20321;-77
2022/06/10 06:13:02;;;;;;;5.57;3.25;;;;;;;17.06;64.20;97952.69;4967304;28;20285;-77
2022/06/10 06:15:28;;;;;;;5.18;2.40;;;;;;;17.29;63.51;97953.94;4967977;28;20244;-77
2022/06/10 06:17:53;;;;;;;3.78;2.72;;;;;;;17.48;62.51;97948.06;4959500;28;20635;-77
2022/06/10 06:20:21;;;;;;;2.78;2.30;;;;;;;17.60;62.06;97959.09;4949467;28;20288;-77
2022/06/10 06:22:46;;;;;;;3.65;2.42;;;;;;;17.78;61.93;97955.81;4933468;28;20233;-76
2022/06/10 06:25:18;;;;;;;4.60;2.47;;;;;;;17.83;61.50;97954.25;4966422;28;20214;-77
2022/06/10 06:27:45;;;;;;;2.88;2.25;;;;;;;18.17;61.04;97959.59;4949982;28;20691;-77
2022/06/10 06:30:31;;;;;;;3.72;2.85;;;;;;;18.19;60.79;97967.22;4949656;28;20697;-77
2022/06/10 06:32:59;;;;;;;4.07;2.58;;;;;;;18.62;59.73;97957.66;4966571;28;20625;-77
2022/06/10 06:35:25;;;;;;;2.67;2.00;;;;;;;18.92;59.05;97968.22;4965854;28;20239;-77
2022/06/10 06:37:51;;;;;;;2.63;1.92;;;;;;;19.10;57.90;97962.25;4954615;28;20213;-77
2022/06/10 06:40:17;;;;;;;2.92;1.73;;;;;;;19.25;56.93;97963.94;4951418;28;20578;-77
2022/06/10 06:42:44;;;;;;;3.03;1.95;;;;;;;19.58;56.46;97959.56;4976879;28;20193;-77
2022/06/10 06:45:11;;;;;;;4.13;2.70;;;;;;;19.87;56.29;97964.00;4958476;28;20218;-77
2022/06/10 06:47:37;;;;;;;2.85;1.70;;;;;;;20.08;55.94;97963.69;4965681;28;20312;-77
2022/06/10 06:50:03;;;;;;;3.35;1.83;;;;;;;20.16;55.67;97966.47;4956192;28;20251;-77
2022/06/10 06:52:28;;;;;;;2.50;1.83;;;;;;;20.46;55.13;97966.28;4973907;28;20245;-77
2022/06/10 06:54:54;;;;;;;2.60;1.65;;;;;;;20.64;54.82;97965.50;4972517;28;20282;-77
2022/06/10 06:57:20;;;;;;;5.30;1.92;;;;;;;20.89;53.98;97969.59;4966269;28;20217;-77
2022/06/10 06:59:46;;;;;;;2.65;1.60;;;;;;;21.05;54.92;97971.94;4966283;28;20287;-77
2022/06/10 07:02:12;;;;;;;3.50;2.05;;;;;;;21.24;53.55;97966.56;4968041;28;20258;-77
2022/06/10 07:04:37;;;;;;;3.42;1.98;;;;;;;21.59;51.79;97975.72;4953871;28;20720;-77
2022/06/10 07:07:04;;;;;;;3.67;2.25;;;;;;;21.59;51.92;97966.94;4949311;28;20605;-77
2022/06/10 07:09:29;;;;;;;3.17;1.98;;;;;;;21.61;52.93;97964.78;4949695;28;20167;-77
2022/06/10 07:11:55;;;;;;;2.40;1.65;;;;;;;21.96;51.46;97965.13;4965763;28;20194;-77
2022/06/10 07:14:22;;;;;;;2.05;1.85;;;;;;;22.06;51.13;97965.66;4964282;28;20620;-77
2022/06/10 07:16:51;;;;;;;3.35;1.83;;;;;;;22.29;50.99;97967.59;4965923;28;20672;-77
2022/06/10 07:19:19;;;;;;;2.38;1.80;;;;;;;22.51;49.07;97967.56;4965907;28;20191;-77
2022/06/10 07:21:44;;;;;;;2.05;1.85;;;;;;;22.62;49.49;97973.44;4948796;28;20276;-77
2022/06/10 07:24:10;;;;;;;2.88;2.13;;;;;;;22.71;49.66;97976.13;4967796;28;20552;-77
2022/06/10 07:26:35;;;;;;;2.72;2.05;;;;;;;23.02;48.52;97965.50;4933115;28;20305;-77
2022/06/10 07:29:01;;;;;;;2.85;1.80;;;;;;;23.14;47.48;97978.22;4952527;28;20237;-77
2022/06/10 07:31:26;;;;;;;1.67;1.35;;;;;;;23.28;46.92;97978.13;4949065;28;20288;-76
2022/06/10 07:33:52;;;;;;;4.10;2.05;;;;;;;23.35;47.25;97960.63;4948989;28;20581;-77
2022/06/10 07:36:17;;;;;;;1.90;1.73;;;;;;;23.54;47.24;97964.91;4965245;28;20256;-77
2022/06/10 07:38:43;;;;;;;3.20;1.70;;;;;;;23.60;46.80;97968.22;4932823;28;20702;-76
2022/06/10 07:43:52;;;;;;;3.05;1.40;;;;;;;23.73;45.13;97967.28;4966415;28;20241;-77
2022/06/10 07:46:20;;;;;;;2.53;1.92;;;;;;;24.09;44.99;97967.03;4967344;28;20215;-77
2022/06/10 07:48:46;;;;;;;3.17;1.38;;;;;;;23.86;43.07;97963.72;4948504;28;20718;-77
2022/06/10 07:51:12;;;;;;;3.30;1.90;;;;;;;24.00;43.10;97971.56;4964958;28;20637;-77
2022/06/10 07:53:41;;;;;;;1.65;1.38;;;;;;;24.20;42.18;97969.38;4932378;28;20164;-77
2022/06/10 07:56:07;;;;;;;2.75;1.75;;;;;;;24.22;43.08;97961.84;4964853;28;20296;-77
2022/06/10 07:58:33;;;;;;;3.97;1.65;;;;;;;24.47;41.76;97963.69;4944426;28;20187;-77
2022/06/10 08:00:58;;;;;;;2.08;1.45;;;;;;;24.54;40.63;97962.41;4939286;28;20642;-77
2022/06/10 08:03:24;;;;;;;1.65;1.50;;;;;;;24.73;40.43;97965.56;4945766;28;20241;-77
2022/06/10 08:05:49;;;;;;;2.20;1.30;;;;;;;24.67;41.15;97964.91;4964311;28;20246;-76
2022/06/10 08:08:17;;;;;;;3.92;1.73;;;;;;;24.75;41.70;97966.00;4963840;28;20359;-77
2022/06/10 08:10:44;;;;;;;3.13;1.73;;;;;;;24.94;42.08;97968.28;4948073;28;20644;-77
2022/06/10 08:13:10;;;;;;;2.40;1.58;;;;;;;24.73;41.87;97968.22;4964253;28;20714;-77
2022/06/10 08:15:36;;;;;;;3.38;1.77;;;;;;;24.97;41.65;97964.22;4943395;28;20280;-77
2022/06/10 08:18:08;;;;;;;2.33;1.80;;;;;;;24.87;40.46;97968.00;4952369;28;20171;-77
2022/06/10 08:23:25;;;;;;;4.28;1.85;;;;;;;25.36;37.66;97965.78;4968476;28;20191;-77
2022/06/10 08:25:51;;;;;;;2.75;1.48;;;;;;;25.36;37.73;97965.00;4967994;28;20299;-77
2022/06/10 08:28:16;;;;;;;2.42;1.40;;;;;;;25.36;39.03;97962.31;4951914;28;20171;-76
2022/06/10 08:30:42;;;;;;;1.70;1.50;;;;;;;25.53;37.72;97959.59;4951790;28;20581;-78
2022/06/10 08:33:08;;;;;;;1.73;1.33;;;;;;;25.68;37.50;97962.78;4966598;28;20214;-78
2022/06/10 08:35:34;;;;;;;2.20;1.50;;;;;;;25.70;37.32;97963.22;4967319;28;20294;-78
2022/06/10 08:38:01;;;;;;;2.53;1.30;;;;;;;25.87;34.64;97962.31;4951707;28;20188;-77
2022/06/10 08:40:46;;;;;;;2.33;1.10;;;;;;;25.84;34.71;97968.31;4967959;28;20292;-77
2022/06/10 08:43:47;;;;;;;2.80;1.20;;;;;;;25.49;35.88;97971.97;4968394;28;20368;-77
2022/06/10 08:46:12;;;;;;;1.52;1.20;;;;;;;25.53;38.59;97972.13;4927453;28;20198;-77
2022/06/10 08:49:09;;;;;;;2.53;1.48;;;;;;;25.66;38.18;97978.31;4963132;28;20289;-76
2022/06/10 08:52:00;;;;;;;1.73;1.20;;;;;;;26.35;36.63;97977.78;4967142;28;20316;-77
2022/06/10 08:54:35;;;;;;;2.25;1.30;;;;;;;26.31;35.72;97965.44;4965128;28;20673;-77
2022/06/10 08:57:11;;;;;;;1.95;1.20;;;;;;;26.41;35.06;97966.91;4968052;28;20206;-77
2022/06/10 08:59:40;;;;;;;2.22;1.58;;;;;;;26.47;36.57;97965.59;4952360;28;20215;-77
2022/06/10 09:02:08;;;;;;;1.75;1.48;;;;;;;26.80;36.35;97978.97;4949107;28;20172;-77
2022/06/10 09:05:00;;;;;;;2.60;1.52;;;;;;;26.78;36.42;97973.16;4966688;28;20178;-77
2022/06/10 09:07:43;;;;;;;1.92;1.30;;;;;;;26.84;38.66;97977.19;4967354;28;20716;-76
2022/06/10 09:10:22;;;;;;;3.20;1.65;;;;;;;27.05;37.31;97969.06;4966826;28;20380;-76
2022/06/10 09:13:16;;;;;;;1.60;1.33;;;;;;;27.57;34.41;97958.81;4974037;28;20280;-77
2022/06/10 09:16:05;;;;;;;4.95;1.80;;;;;;;27.57;33.74;97964.16;4962675;28;20179;-76
2022/06/10 09:18:43;;;;;;;1.65;1.27;;;;;;;27.63;33.51;97962.81;4966653;28;20218;-77
2022/06/10 09:21:16;;;;;;;1.90;1.35;;;;;;;27.78;32.16;97964.81;4967027;28;20183;-77
2022/06/10 09:23:44;;;;;;;2.03;1.23;;;;;;;27.49;32.94;97975.75;4958179;28;20182;-77
2022/06/10 09:26:15;;;;;;;1.85;1.55;;;;;;;27.12;34.97;97975.75;4971575;28;20704;-77
2022/06/10 09:28:42;;;;;;;1.63;1.20;;;;;;;27.15;34.55;97975.09;4935881;28;20280;-77
2022/06/10 09:31:29;;;;;;;2.10;1.45;;;;;;;27.43;36.39;97969.88;4948893;28;20195;-77
2022/06/10 09:34:19;;;;;;;3.33;1.50;;;;;;;27.48;31.25;97974.22;4952037;28;20198;-77
2022/06/10 09:37:20;;;;;;;1.48;0.95;;;;;;;27.63;32.31;97973.53;4967681;28;20164;-77
2022/06/10 09:42:48;;;;;;;2.17;1.10;;;;;;;28.03;31.71;97962.06;4961170;28;20252;-77
2022/06/10 09:45:22;;;;;;;1.67;1.20;;;;;;;28.28;30.96;97970.03;4954969;28;20024;-77
2022/06/10 09:48:00;;;;;;;3.15;1.30;;;;;;;28.42;32.80;97970.38;4951291;28;20900;-77
2022/06/10 09:50:35;;;;;;;1.90;1.20;;;;;;;28.23;31.55;97968.34;4957960;28;20205;-77
2022/06/10 09:53:29;;;;;;;1.15;0.80;;;;;;;28.68;31.79;97974.53;4951725;28;20086;-76
2022/06/10 09:56:20;;;;;;;3.30;1.42;;;;;;;28.77;31.64;97965.19;4967796;28;20036;-77
2022/06/10 09:58:51;;;;;;;4.47;1.35;;;;;;;28.72;32.62;97962.78;4972262;28;20041;-76
2022/06/10 10:01:37;;;;;;;2.10;1.10;;;;;;;29.02;32.52;97967.69;4974595;28;20040;-76
2022/06/10 10:04:24;;;;;;;3.08;1.45;;;;;;;28.72;31.67;97968.13;4941382;28;20108;-76
2022/06/10 10:06:55;;;;;;;2.50;1.38;;;;;;;28.94;30.20;97958.72;4973803;28;20021;-76
2022/06/10 10:09:53;;;;;;;2.15;1.13;;;;;;;29.29;31.72;97958.00;4952298;28;20429;-76
2022/06/10 10:12:37;;;;;;;4.00;1.20;;;;;;;29.17;29.73;97963.47;4949626;28;20184;-76
2022/06/10 10:15:23;;;;;;;2.63;1.23;;;;;;;28.70;30.89;97958.88;4959602;28;20360;-76
2022/06/10 10:18:27;;;;;;;2.30;1.23;;;;;;;28.44;31.82;97959.34;4950615;28;20253;-77
2022/06/10 10:21:11;;;;;;;2.10;1.35;;;;;;;28.83;30.10;97956.91;4958694;28;20277;-77
2022/06/10 10:23:43;;;;;;;1.80;1.10;;;;;;;28.81;30.37;97956.47;4966106;28;20286;-77
2022/06/10 10:26:20;;;;;;;2.05;1.20;;;;;;;28.68;30.51;97956.53;4966879;28;20285;-76
2022/06/10 10:28:46;;;;;;;2.67;1.02;;;;;;;29.19;30.29;97953.19;4968470;28;20298;-76
2022/06/10 10:31:21;;;;;;;2.08;1.30;;;;;;;29.31;31.03;97954.97;4949813;28;20364;-76
2022/06/10 10:33:47;;;;;;;2.97;1.20;;;;;;;29.54;29.89;97948.94;4949954;28;20296;-76
2022/06/10 10:36:24;;;;;;;2.38;1.10;;;;;;;29.42;28.93;97944.47;4949832;28;20260;-77
2022/06/10 10:38:51;;;;;;;2.70;1.15;;;;;;;29.41;28.76;97943.72;4969014;28;20180;-76
2022/06/10 10:41:25;;;;;;;3.22;1.20;;;;;;;29.58;28.58;97942.53;4967858;28;20255;-77
2022/06/10 10:43:53;;;;;;;3.35;1.30;;;;;;;29.81;31.66;97947.25;4968271;28;20395;-77
2022/06/10 10:46:32;;;;;;;1.45;1.20;;;;;;;29.27;29.29;97949.53;4965700;28;20518;-77
2022/06/10 10:48:58;;;;;;;1.85;1.10;;;;;;;29.12;29.25;97951.06;4965575;28;20664;-76
2022/06/10 10:51:29;;;;;;;1.55;1.02;;;;;;;28.59;29.77;97942.53;4965733;28;20225;-77
2022/06/10 10:53:56;;;;;;;1.98;1.10;;;;;;;28.13;30.54;97948.19;4966348;28;20246;-77
2022/06/10 10:56:31;;;;;;;3.30;1.80;;;;;;;27.64;30.01;97938.41;4949932;28;20606;-77
2022/06/10 10:58:57;;;;;;;3.30;1.23;;;;;;;27.83;31.01;97931.69;4950032;28;20194;-76
2022/06/10 11:01:51;;;;;;;1.80;1.10;;;;;;;28.06;29.23;97933.84;4955640;28;20210;-77
2022/06/10 11:04:26;;;;;;;1.40;0.90;;;;;;;28.08;29.91;97932.38;4964087;28;20765;-77
2022/06/10 11:07:22;;;;;;;2.22;0.95;;;;;;;27.80;28.73;97927.00;4965054;28;20198;-77
2022/06/10 11:09:53;;;;;;;2.42;1.08;;;;;;;27.76;28.79;97929.56;4953028;28;20243;-77
2022/06/10 11:12:23;;;;;;;2.53;1.10;;;;;;;28.27;30.44;97936.31;4932386;28;20176;-77
2022/06/10 11:14:57;;;;;;;1.75;1.52;;;;;;;28.29;28.70;97940.22;4964384;28;20283;-77
2022/06/10 11:17:23;;;;;;;1.30;0.90;;;;;;;28.30;29.53;97930.28;4959490;28;20199;-77
2022/06/10 11:19:54;;;;;;;1.38;0.95;;;;;;;28.16;29.51;97938.72;4964652;28;20195;-77
2022/06/10 11:22:30;;;;;;;2.40;1.00;;;;;;;27.83;28.95;97926.31;4947454;28;20194;-77
2022/06/10 11:25:17;;;;;;;1.70;0.90;;;;;;;27.57;31.87;97918.69;4932551;28;20198;-77
2022/06/10 11:27:48;;;;;;;2.42;1.30;;;;;;;27.83;29.58;97919.06;4967776;28;20592;-77
2022/06/10 11:30:13;;;;;;;1.75;1.10;;;;;;;27.90;30.54;97918.50;4963155;28;20619;-77
2022/06/10 11:32:48;;;;;;;1.70;1.13;;;;;;;27.52;31.35;97924.28;4964739;28;20207;-77
2022/06/10 11:35:24;;;;;;;1.98;0.93;;;;;;;27.81;30.57;97926.66;4966714;28;20198;-77
2022/06/10 11:37:53;;;;;;;2.10;0.90;;;;;;;27.87;33.04;97918.41;4964463;28;20252;-77
2022/06/10 11:40:38;;;;;;;2.20;1.42;;;;;;;27.72;34.13;97917.97;4960791;28;20204;-76
2022/06/10 11:43:12;;;;;;;1.57;0.90;;;;;;;27.64;32.92;97914.34;4949941;28;20643;-76
2022/06/10 11:46:04;;;;;;;;;;;;;;;27.37;34.55;97917.75;4948273;28;20344;-77
2022/06/10 11:48:34;;;;;;;2.17;1.15;;;;;;;27.11;35.11;97916.19;4957040;28;20063;-77
2022/06/10 11:51:04;;;;;;;2.25;1.40;;;;;;;26.89;33.96;97912.06;4964202;28;20195;-77
2022/06/10 11:53:29;;;;;;;2.10;1.42;;;;;;;26.91;30.96;97915.94;4941298;28;20163;-77
2022/06/10 11:59:42;;;;;;;3.00;1.27;;;;;;;26.97;30.52;97902.34;4966052;28;20641;-77
2022/06/10 12:01:33;;;;;;;2.15;1.40;;;;;;;27.44;33.97;97908.03;4972687;28;20181;-77
2022/06/10 12:04:11;;;;;;;2.05;1.35;;;;;;;27.22;35.06;97900.44;4932251;28;20182;-77
2022/06/10 12:06:41;;;;;;;3.03;1.50;;;;;;;27.57;32.90;97891.94;4964501;28;20301;-77
2022/06/10 12:09:25;;;;;;;1.75;1.15;;;;;;;27.69;31.72;97891.13;4941900;28;20331;-78
2022/06/10 12:11:53;;;;;;;1.37;1.00;;;;;;;27.60;31.71;97883.25;4932041;28;20267;-78
2022/06/10 12:14:25;;;;;;;2.17;0.90;;;;;;;27.44;29.49;97878.59;4962890;28;20454;-78
2022/06/10 12:16:56;;;;;;;2.50;1.02;;;;;;;27.29;30.95;97881.97;4949393;28;20202;-78
2022/06/10 12:19:30;;;;;;;1.25;0.95;;;;;;;27.29;34.11;97884.66;4964799;28;20182;-76